sensor_id;sensor_type;location;lat;lon;timestamp;P1;durP1;ratioP1;P2;durP2;ratioP2
39540;SDS011;25219;52.244;21.006;2023-03-01T00:01:07;57.38;;;25.13;;
39540;SDS011;25219;52.244;21.006;2023-03-01T00:03:33;51.47;;;24.27;;
39540;SDS011;25219;52.244;21.006;2023-03-01T00:05:59;67.55;;;24.38;;
39540;SDS011;25219;52.244;21.006;2023-03-01T00:08:25;66.80;;;26.63;;
39540;SDS011;25219;52.244;21.006;2023-03-01T00:10:59;66.70;;;25.65;;
39540;SDS011;25219;52.244;21.006;2023-03-01T00:13:24;57.25;;;24.08;;
39540;SDS011;25219;52.244;21.006;2023-03-01T00:15:50;61.13;;;26.05;;
39540;SDS011;25219;52.244;21.006;2023-03-01T00:18:15;62.50;;;25.27;;
39540;SDS011;25219;52.244;21.006;2023-03-01T00:20:40;62.58;;;24.55;;
39540;SDS011;25219;52.244;21.006;2023-03-01T00:23:06;59.13;;;26.20;;
39540;SDS011;25219;52.244;21.006;2023-03-01T00:25:31;65.97;;;24.25;;
39540;SDS011;25219;52.244;21.006;2023-03-01T00:27:56;61.40;;;25.90;;
39540;SDS011;25219;52.244;21.006;2023-03-01T00:30:21;57.42;;;26.00;;
39540;SDS011;25219;52.244;21.006;2023-03-01T00:32:47;64.30;;;26.58;;
39540;SDS011;25219;52.244;21.006;2023-03-01T00:35:12;65.97;;;26.58;;
39540;SDS011;25219;52.244;21.006;2023-03-01T00:37:37;64.38;;;27.67;;
39540;SDS011;25219;52.244;21.006;2023-03-01T00:40:03;69.88;;;28.27;;
39540;SDS011;25219;52.244;21.006;2023-03-01T00:42:31;62.85;;;26.55;;
39540;SDS011;25219;52.244;21.006;2023-03-01T00:44:56;68.18;;;26.75;;
39540;SDS011;25219;52.244;21.006;2023-03-01T00:47:21;64.72;;;27.30;;
39540;SDS011;25219;52.244;21.006;2023-03-01T00:49:47;67.10;;;27.45;;
39540;SDS011;25219;52.244;21.006;2023-03-01T00:52:13;68.38;;;27.35;;
39540;SDS011;25219;52.244;21.006;2023-03-01T00:54:38;65.95;;;27.23;;
39540;SDS011;25219;52.244;21.006;2023-03-01T00:57:03;71.07;;;27.23;;
39540;SDS011;25219;52.244;21.006;2023-03-01T00:59:29;72.03;;;27.58;;
39540;SDS011;25219;52.244;21.006;2023-03-01T01:01:54;66.40;;;26.65;;
39540;SDS011;25219;52.244;21.006;2023-03-01T01:04:19;66.68;;;26.52;;
39540;SDS011;25219;52.244;21.006;2023-03-01T01:06:45;63.30;;;27.17;;
39540;SDS011;25219;52.244;21.006;2023-03-01T01:09:12;68.43;;;27.25;;
39540;SDS011;25219;52.244;21.006;2023-03-01T01:11:48;67.78;;;26.63;;
39540;SDS011;25219;52.244;21.006;2023-03-01T01:14:14;61.38;;;25.70;;
39540;SDS011;25219;52.244;21.006;2023-03-01T01:16:39;61.25;;;25.38;;
39540;SDS011;25219;52.244;21.006;2023-03-01T01:19:04;68.88;;;25.63;;
39540;SDS011;25219;52.244;21.006;2023-03-01T01:21:30;56.72;;;25.50;;
39540;SDS011;25219;52.244;21.006;2023-03-01T01:23:55;63.60;;;26.38;;
39540;SDS011;25219;52.244;21.006;2023-03-01T01:26:24;64.20;;;26.00;;
39540;SDS011;25219;52.244;21.006;2023-03-01T01:28:50;62.08;;;26.10;;
39540;SDS011;25219;52.244;21.006;2023-03-01T01:31:16;52.03;;;24.40;;
39540;SDS011;25219;52.244;21.006;2023-03-01T01:33:41;64.13;;;26.17;;
39540;SDS011;25219;52.244;21.006;2023-03-01T01:36:07;60.08;;;26.58;;
39540;SDS011;25219;52.244;21.006;2023-03-01T01:38:33;68.22;;;25.63;;
39540;SDS011;25219;52.244;21.006;2023-03-01T01:40:59;72.63;;;27.15;;
39540;SDS011;25219;52.244;21.006;2023-03-01T01:43:28;62.92;;;26.45;;
39540;SDS011;25219;52.244;21.006;2023-03-01T01:45:59;66.95;;;26.67;;
39540;SDS011;25219;52.244;21.006;2023-03-01T01:48:27;68.32;;;26.33;;
39540;SDS011;25219;52.244;21.006;2023-03-01T01:51:05;60.37;;;25.90;;
39540;SDS011;25219;52.244;21.006;2023-03-01T01:53:32;69.78;;;27.48;;
39540;SDS011;25219;52.244;21.006;2023-03-01T01:55:58;65.53;;;25.65;;
39540;SDS011;25219;52.244;21.006;2023-03-01T01:58:26;71.35;;;26.63;;
39540;SDS011;25219;52.244;21.006;2023-03-01T02:00:52;66.43;;;28.58;;
39540;SDS011;25219;52.244;21.006;2023-03-01T02:03:19;67.15;;;26.75;;
39540;SDS011;25219;52.244;21.006;2023-03-01T02:08:13;67.60;;;27.40;;
39540;SDS011;25219;52.244;21.006;2023-03-01T02:10:39;64.18;;;26.58;;
39540;SDS011;25219;52.244;21.006;2023-03-01T02:13:05;59.58;;;27.08;;
39540;SDS011;25219;52.244;21.006;2023-03-01T02:15:31;67.55;;;25.83;;
39540;SDS011;25219;52.244;21.006;2023-03-01T02:17:57;58.80;;;24.67;;
39540;SDS011;25219;52.244;21.006;2023-03-01T02:20:26;64.07;;;26.40;;
39540;SDS011;25219;52.244;21.006;2023-03-01T02:22:52;60.60;;;24.42;;
39540;SDS011;25219;52.244;21.006;2023-03-01T02:30:36;61.50;;;24.38;;
39540;SDS011;25219;52.244;21.006;2023-03-01T02:33:02;64.03;;;25.17;;
39540;SDS011;25219;52.244;21.006;2023-03-01T02:35:35;58.28;;;25.38;;
39540;SDS011;25219;52.244;21.006;2023-03-01T02:38:02;56.20;;;24.70;;
39540;SDS011;25219;52.244;21.006;2023-03-01T02:40:29;55.83;;;23.13;;
39540;SDS011;25219;52.244;21.006;2023-03-01T02:42:58;59.00;;;23.90;;
39540;SDS011;25219;52.244;21.006;2023-03-01T02:45:24;53.75;;;22.75;;
39540;SDS011;25219;52.244;21.006;2023-03-01T02:47:53;62.65;;;24.27;;
39540;SDS011;25219;52.244;21.006;2023-03-01T02:52:55;52.92;;;22.80;;
39540;SDS011;25219;52.244;21.006;2023-03-01T02:55:23;59.95;;;24.83;;
39540;SDS011;25219;52.244;21.006;2023-03-01T02:57:48;59.67;;;25.38;;
39540;SDS011;25219;52.244;21.006;2023-03-01T03:00:21;62.03;;;24.25;;
39540;SDS011;25219;52.244;21.006;2023-03-01T03:02:48;57.20;;;24.27;;
39540;SDS011;25219;52.244;21.006;2023-03-01T03:05:18;57.35;;;24.85;;
39540;SDS011;25219;52.244;21.006;2023-03-01T03:07:44;62.50;;;26.25;;
39540;SDS011;25219;52.244;21.006;2023-03-01T03:10:14;65.03;;;24.83;;
39540;SDS011;25219;52.244;21.006;2023-03-01T03:12:39;59.67;;;23.73;;
39540;SDS011;25219;52.244;21.006;2023-03-01T03:15:06;64.93;;;25.38;;
39540;SDS011;25219;52.244;21.006;2023-03-01T03:17:37;61.88;;;24.92;;
39540;SDS011;25219;52.244;21.006;2023-03-01T03:20:04;59.67;;;24.75;;
39540;SDS011;25219;52.244;21.006;2023-03-01T03:22:30;65.68;;;26.20;;
39540;SDS011;25219;52.244;21.006;2023-03-01T03:24:55;58.40;;;24.33;;
39540;SDS011;25219;52.244;21.006;2023-03-01T03:27:21;63.20;;;25.95;;
39540;SDS011;25219;52.244;21.006;2023-03-01T03:29:46;57.80;;;26.05;;
39540;SDS011;25219;52.244;21.006;2023-03-01T03:32:11;61.58;;;24.65;;
39540;SDS011;25219;52.244;21.006;2023-03-01T03:34:36;60.25;;;24.13;;
39540;SDS011;25219;52.244;21.006;2023-03-01T03:37:02;59.47;;;25.33;;
39540;SDS011;25219;52.244;21.006;2023-03-01T03:39:27;58.58;;;24.80;;
39540;SDS011;25219;52.244;21.006;2023-03-01T03:41:59;61.33;;;25.33;;
39540;SDS011;25219;52.244;21.006;2023-03-01T03:44:25;62.28;;;25.70;;
39540;SDS011;25219;52.244;21.006;2023-03-01T03:46:50;65.45;;;24.80;;
39540;SDS011;25219;52.244;21.006;2023-03-01T03:49:15;56.75;;;24.15;;
39540;SDS011;25219;52.244;21.006;2023-03-01T03:51:40;64.03;;;24.02;;
39540;SDS011;25219;52.244;21.006;2023-03-01T03:54:06;57.65;;;24.35;;
39540;SDS011;25219;52.244;21.006;2023-03-01T03:56:31;62.25;;;24.73;;
39540;SDS011;25219;52.244;21.006;2023-03-01T03:58:56;63.17;;;24.45;;
39540;SDS011;25219;52.244;21.006;2023-03-01T04:01:22;66.53;;;25.63;;
39540;SDS011;25219;52.244;21.006;2023-03-01T04:03:47;59.50;;;23.88;;
39540;SDS011;25219;52.244;21.006;2023-03-01T04:06:13;65.85;;;27.35;;
39540;SDS011;25219;52.244;21.006;2023-03-01T04:08:39;65.15;;;26.63;;
39540;SDS011;25219;52.244;21.006;2023-03-01T04:11:04;62.83;;;25.58;;
39540;SDS011;25219;52.244;21.006;2023-03-01T04:13:49;71.10;;;26.20;;
39540;SDS011;25219;52.244;21.006;2023-03-01T04:16:14;58.85;;;25.27;;
39540;SDS011;25219;52.244;21.006;2023-03-01T04:18:40;64.47;;;26.85;;
39540;SDS011;25219;52.244;21.006;2023-03-01T04:21:05;61.78;;;26.30;;
39540;SDS011;25219;52.244;21.006;2023-03-01T04:23:30;66.45;;;26.05;;
39540;SDS011;25219;52.244;21.006;2023-03-01T04:25:56;61.47;;;25.70;;
39540;SDS011;25219;52.244;21.006;2023-03-01T04:28:23;58.85;;;24.95;;
39540;SDS011;25219;52.244;21.006;2023-03-01T04:30:55;68.53;;;25.38;;
39540;SDS011;25219;52.244;21.006;2023-03-01T04:33:20;67.82;;;26.15;;
39540;SDS011;25219;52.244;21.006;2023-03-01T04:35:46;68.40;;;26.55;;
39540;SDS011;25219;52.244;21.006;2023-03-01T04:38:14;59.90;;;23.92;;
39540;SDS011;25219;52.244;21.006;2023-03-01T04:40:39;56.38;;;25.27;;
39540;SDS011;25219;52.244;21.006;2023-03-01T04:43:08;63.85;;;25.27;;
39540;SDS011;25219;52.244;21.006;2023-03-01T04:45:33;70.57;;;25.38;;
39540;SDS011;25219;52.244;21.006;2023-03-01T04:47:59;61.50;;;23.98;;
39540;SDS011;25219;52.244;21.006;2023-03-01T04:50:25;66.10;;;25.15;;
39540;SDS011;25219;52.244;21.006;2023-03-01T04:52:50;65.22;;;25.00;;
39540;SDS011;25219;52.244;21.006;2023-03-01T04:55:16;57.65;;;25.92;;
39540;SDS011;25219;52.244;21.006;2023-03-01T04:57:41;65.25;;;27.58;;
39540;SDS011;25219;52.244;21.006;2023-03-01T05:00:08;62.22;;;24.83;;
39540;SDS011;25219;52.244;21.006;2023-03-01T05:02:55;68.45;;;27.00;;
39540;SDS011;25219;52.244;21.006;2023-03-01T05:05:21;57.45;;;26.55;;
39540;SDS011;25219;52.244;21.006;2023-03-01T05:07:50;68.03;;;25.10;;
39540;SDS011;25219;52.244;21.006;2023-03-01T05:10:16;64.75;;;26.67;;
39540;SDS011;25219;52.244;21.006;2023-03-01T05:12:41;66.10;;;26.23;;
39540;SDS011;25219;52.244;21.006;2023-03-01T05:15:06;73.50;;;28.65;;
39540;SDS011;25219;52.244;21.006;2023-03-01T05:17:32;72.38;;;27.08;;
39540;SDS011;25219;52.244;21.006;2023-03-01T05:19:58;65.03;;;27.52;;
39540;SDS011;25219;52.244;21.006;2023-03-01T05:22:24;58.63;;;28.13;;
39540;SDS011;25219;52.244;21.006;2023-03-01T05:24:49;72.65;;;28.50;;
39540;SDS011;25219;52.244;21.006;2023-03-01T05:27:15;73.75;;;30.67;;
39540;SDS011;25219;52.244;21.006;2023-03-01T05:29:40;61.50;;;26.40;;
39540;SDS011;25219;52.244;21.006;2023-03-01T05:32:05;64.72;;;27.52;;
39540;SDS011;25219;52.244;21.006;2023-03-01T05:34:33;66.90;;;27.98;;
39540;SDS011;25219;52.244;21.006;2023-03-01T05:36:59;69.20;;;28.75;;
39540;SDS011;25219;52.244;21.006;2023-03-01T05:39:25;68.80;;;27.08;;
39540;SDS011;25219;52.244;21.006;2023-03-01T05:41:54;66.53;;;27.48;;
39540;SDS011;25219;52.244;21.006;2023-03-01T05:44:20;70.80;;;28.42;;
39540;SDS011;25219;52.244;21.006;2023-03-01T05:46:46;67.60;;;29.63;;
39540;SDS011;25219;52.244;21.006;2023-03-01T05:49:12;75.95;;;28.90;;
39540;SDS011;25219;52.244;21.006;2023-03-01T05:51:38;75.25;;;28.85;;
39540;SDS011;25219;52.244;21.006;2023-03-01T05:54:03;70.10;;;28.73;;
39540;SDS011;25219;52.244;21.006;2023-03-01T05:56:32;81.00;;;29.35;;
39540;SDS011;25219;52.244;21.006;2023-03-01T05:58:57;72.95;;;28.45;;
39540;SDS011;25219;52.244;21.006;2023-03-01T06:01:22;70.03;;;28.75;;
39540;SDS011;25219;52.244;21.006;2023-03-01T06:03:48;71.65;;;27.63;;
39540;SDS011;25219;52.244;21.006;2023-03-01T06:06:13;69.07;;;27.75;;
39540;SDS011;25219;52.244;21.006;2023-03-01T06:08:38;70.75;;;28.42;;
39540;SDS011;25219;52.244;21.006;2023-03-01T06:11:04;73.30;;;28.10;;
39540;SDS011;25219;52.244;21.006;2023-03-01T06:13:30;65.50;;;26.92;;
39540;SDS011;25219;52.244;21.006;2023-03-01T06:15:55;66.07;;;27.42;;
39540;SDS011;25219;52.244;21.006;2023-03-01T06:18:21;70.07;;;27.08;;
39540;SDS011;25219;52.244;21.006;2023-03-01T06:20:52;67.88;;;26.33;;
39540;SDS011;25219;52.244;21.006;2023-03-01T06:25:42;59.70;;;24.90;;
39540;SDS011;25219;52.244;21.006;2023-03-01T06:28:08;65.65;;;24.90;;
39540;SDS011;25219;52.244;21.006;2023-03-01T06:30:33;62.30;;;26.42;;
39540;SDS011;25219;52.244;21.006;2023-03-01T06:32:58;70.20;;;26.95;;
39540;SDS011;25219;52.244;21.006;2023-03-01T06:35:28;61.28;;;26.75;;
39540;SDS011;25219;52.244;21.006;2023-03-01T06:37:55;60.50;;;25.70;;
39540;SDS011;25219;52.244;21.006;2023-03-01T06:40:20;63.63;;;26.80;;
39540;SDS011;25219;52.244;21.006;2023-03-01T06:42:48;60.00;;;25.38;;
39540;SDS011;25219;52.244;21.006;2023-03-01T06:45:14;58.15;;;25.15;;
39540;SDS011;25219;52.244;21.006;2023-03-01T06:47:39;58.67;;;24.73;;
39540;SDS011;25219;52.244;21.006;2023-03-01T06:50:05;67.30;;;25.73;;
39540;SDS011;25219;52.244;21.006;2023-03-01T06:52:30;57.80;;;25.23;;
39540;SDS011;25219;52.244;21.006;2023-03-01T06:54:56;62.05;;;25.65;;
39540;SDS011;25219;52.244;21.006;2023-03-01T06:57:21;61.80;;;26.40;;
39540;SDS011;25219;52.244;21.006;2023-03-01T06:59:47;59.58;;;26.35;;
39540;SDS011;25219;52.244;21.006;2023-03-01T07:02:13;60.33;;;25.88;;
39540;SDS011;25219;52.244;21.006;2023-03-01T07:04:38;70.55;;;25.27;;
39540;SDS011;25219;52.244;21.006;2023-03-01T07:07:04;65.80;;;26.55;;
39540;SDS011;25219;52.244;21.006;2023-03-01T07:09:30;65.05;;;25.65;;
39540;SDS011;25219;52.244;21.006;2023-03-01T07:11:55;60.92;;;25.15;;
39540;SDS011;25219;52.244;21.006;2023-03-01T07:14:21;46.83;;;24.13;;
39540;SDS011;25219;52.244;21.006;2023-03-01T07:16:49;63.28;;;26.30;;
39540;SDS011;25219;52.244;21.006;2023-03-01T07:19:14;62.10;;;25.35;;
39540;SDS011;25219;52.244;21.006;2023-03-01T07:21:40;61.28;;;25.00;;
39540;SDS011;25219;52.244;21.006;2023-03-01T07:24:06;62.10;;;25.85;;
39540;SDS011;25219;52.244;21.006;2023-03-01T07:26:32;54.75;;;24.42;;
39540;SDS011;25219;52.244;21.006;2023-03-01T07:29:00;58.95;;;23.63;;
39540;SDS011;25219;52.244;21.006;2023-03-01T07:31:26;52.70;;;23.60;;
39540;SDS011;25219;52.244;21.006;2023-03-01T07:33:53;48.58;;;22.63;;
39540;SDS011;25219;52.244;21.006;2023-03-01T07:36:18;54.97;;;21.55;;
39540;SDS011;25219;52.244;21.006;2023-03-01T07:38:43;50.97;;;21.75;;
39540;SDS011;25219;52.244;21.006;2023-03-01T07:41:09;50.05;;;21.58;;
39540;SDS011;25219;52.244;21.006;2023-03-01T07:43:34;54.03;;;21.00;;
39540;SDS011;25219;52.244;21.006;2023-03-01T07:46:00;46.70;;;21.83;;
39540;SDS011;25219;52.244;21.006;2023-03-01T07:48:25;51.78;;;21.73;;
39540;SDS011;25219;52.244;21.006;2023-03-01T07:50:51;48.08;;;22.08;;
39540;SDS011;25219;52.244;21.006;2023-03-01T07:53:16;46.75;;;22.15;;
39540;SDS011;25219;52.244;21.006;2023-03-01T07:55:41;47.75;;;22.40;;
39540;SDS011;25219;52.244;21.006;2023-03-01T07:58:07;48.88;;;21.95;;
39540;SDS011;25219;52.244;21.006;2023-03-01T08:00:32;39.65;;;19.15;;
39540;SDS011;25219;52.244;21.006;2023-03-01T08:03:00;49.17;;;21.88;;
39540;SDS011;25219;52.244;21.006;2023-03-01T08:05:26;46.50;;;20.27;;
39540;SDS011;25219;52.244;21.006;2023-03-01T08:07:52;43.03;;;19.92;;
39540;SDS011;25219;52.244;21.006;2023-03-01T08:10:24;44.08;;;20.15;;
39540;SDS011;25219;52.244;21.006;2023-03-01T08:15:14;44.00;;;18.50;;
39540;SDS011;25219;52.244;21.006;2023-03-01T08:17:48;40.03;;;18.40;;
39540;SDS011;25219;52.244;21.006;2023-03-01T08:20:13;45.28;;;19.90;;
39540;SDS011;25219;52.244;21.006;2023-03-01T08:22:38;42.22;;;18.52;;
39540;SDS011;25219;52.244;21.006;2023-03-01T08:25:04;40.88;;;17.45;;
39540;SDS011;25219;52.244;21.006;2023-03-01T08:27:29;39.85;;;18.05;;
39540;SDS011;25219;52.244;21.006;2023-03-01T08:29:55;31.23;;;15.35;;
39540;SDS011;25219;52.244;21.006;2023-03-01T08:32:23;36.03;;;17.55;;
39540;SDS011;25219;52.244;21.006;2023-03-01T08:34:48;39.60;;;18.08;;
39540;SDS011;25219;52.244;21.006;2023-03-01T08:37:13;40.65;;;16.70;;
39540;SDS011;25219;52.244;21.006;2023-03-01T08:39:38;30.05;;;15.32;;
39540;SDS011;25219;52.244;21.006;2023-03-01T08:42:04;36.78;;;17.88;;
39540;SDS011;25219;52.244;21.006;2023-03-01T08:44:29;33.53;;;16.20;;
39540;SDS011;25219;52.244;21.006;2023-03-01T08:46:55;37.88;;;16.13;;
39540;SDS011;25219;52.244;21.006;2023-03-01T08:49:21;35.70;;;15.50;;
39540;SDS011;25219;52.244;21.006;2023-03-01T08:51:46;31.48;;;16.13;;
39540;SDS011;25219;52.244;21.006;2023-03-01T08:54:14;32.88;;;16.75;;
39540;SDS011;25219;52.244;21.006;2023-03-01T08:56:40;28.38;;;15.13;;
39540;SDS011;25219;52.244;21.006;2023-03-01T08:59:05;33.92;;;15.40;;
39540;SDS011;25219;52.244;21.006;2023-03-01T09:01:31;32.00;;;14.52;;
39540;SDS011;25219;52.244;21.006;2023-03-01T09:03:56;29.92;;;14.95;;
39540;SDS011;25219;52.244;21.006;2023-03-01T09:06:22;30.15;;;14.75;;
39540;SDS011;25219;52.244;21.006;2023-03-01T09:08:47;27.98;;;13.32;;
39540;SDS011;25219;52.244;21.006;2023-03-01T09:11:14;27.00;;;14.13;;
39540;SDS011;25219;52.244;21.006;2023-03-01T09:13:41;27.23;;;14.07;;
39540;SDS011;25219;52.244;21.006;2023-03-01T09:16:06;25.25;;;12.52;;
39540;SDS011;25219;52.244;21.006;2023-03-01T09:18:32;28.00;;;12.95;;
39540;SDS011;25219;52.244;21.006;2023-03-01T09:21:04;30.13;;;12.98;;
39540;SDS011;25219;52.244;21.006;2023-03-01T09:23:43;30.33;;;14.82;;
39540;SDS011;25219;52.244;21.006;2023-03-01T09:26:10;29.40;;;14.30;;
39540;SDS011;25219;52.244;21.006;2023-03-01T09:28:36;26.95;;;12.40;;
39540;SDS011;25219;52.244;21.006;2023-03-01T09:31:01;29.15;;;13.32;;
39540;SDS011;25219;52.244;21.006;2023-03-01T09:33:28;24.75;;;12.68;;
39540;SDS011;25219;52.244;21.006;2023-03-01T09:35:57;29.92;;;13.60;;
39540;SDS011;25219;52.244;21.006;2023-03-01T09:38:23;31.80;;;13.85;;
39540;SDS011;25219;52.244;21.006;2023-03-01T09:40:48;33.10;;;17.77;;
39540;SDS011;25219;52.244;21.006;2023-03-01T09:43:37;37.83;;;16.20;;
39540;SDS011;25219;52.244;21.006;2023-03-01T09:46:08;33.45;;;17.10;;
39540;SDS011;25219;52.244;21.006;2023-03-01T09:48:42;36.88;;;17.50;;
39540;SDS011;25219;52.244;21.006;2023-03-01T09:51:09;38.15;;;18.27;;
39540;SDS011;25219;52.244;21.006;2023-03-01T09:53:37;41.47;;;16.75;;
39540;SDS011;25219;52.244;21.006;2023-03-01T09:56:09;37.95;;;17.58;;
39540;SDS011;25219;52.244;21.006;2023-03-01T10:06:23;35.40;;;16.23;;
39540;SDS011;25219;52.244;21.006;2023-03-01T10:11:30;33.70;;;16.20;;
39540;SDS011;25219;52.244;21.006;2023-03-01T10:14:03;34.22;;;15.40;;
39540;SDS011;25219;52.244;21.006;2023-03-01T10:16:41;36.35;;;15.85;;
39540;SDS011;25219;52.244;21.006;2023-03-01T10:19:11;29.42;;;15.88;;
39540;SDS011;25219;52.244;21.006;2023-03-01T10:21:38;34.10;;;14.52;;
39540;SDS011;25219;52.244;21.006;2023-03-01T10:24:13;31.90;;;15.10;;
39540;SDS011;25219;52.244;21.006;2023-03-01T10:29:11;33.58;;;16.40;;
39540;SDS011;25219;52.244;21.006;2023-03-01T10:31:38;25.35;;;12.73;;
39540;SDS011;25219;52.244;21.006;2023-03-01T10:36:39;26.25;;;12.02;;
39540;SDS011;25219;52.244;21.006;2023-03-01T10:39:11;28.42;;;13.13;;
39540;SDS011;25219;52.244;21.006;2023-03-01T10:41:37;24.90;;;13.38;;
39540;SDS011;25219;52.244;21.006;2023-03-01T10:44:10;24.30;;;12.65;;
39540;SDS011;25219;52.244;21.006;2023-03-01T10:46:59;29.35;;;14.10;;
39540;SDS011;25219;52.244;21.006;2023-03-01T10:49:25;30.92;;;14.65;;
39540;SDS011;25219;52.244;21.006;2023-03-01T10:51:52;27.80;;;13.65;;
39540;SDS011;25219;52.244;21.006;2023-03-01T10:57:02;26.80;;;13.30;;
39540;SDS011;25219;52.244;21.006;2023-03-01T10:59:35;30.58;;;12.95;;
39540;SDS011;25219;52.244;21.006;2023-03-01T11:04:35;27.98;;;13.23;;
39540;SDS011;25219;52.244;21.006;2023-03-01T11:07:01;28.42;;;13.10;;
39540;SDS011;25219;52.244;21.006;2023-03-01T11:09:29;29.30;;;13.55;;
39540;SDS011;25219;52.244;21.006;2023-03-01T11:11:58;25.20;;;13.45;;
39540;SDS011;25219;52.244;21.006;2023-03-01T11:14:25;26.20;;;11.73;;
39540;SDS011;25219;52.244;21.006;2023-03-01T11:17:01;25.65;;;13.10;;
39540;SDS011;25219;52.244;21.006;2023-03-01T11:19:27;23.90;;;11.95;;
39540;SDS011;25219;52.244;21.006;2023-03-01T11:24:26;23.58;;;11.65;;
39540;SDS011;25219;52.244;21.006;2023-03-01T11:26:53;23.50;;;12.27;;
39540;SDS011;25219;52.244;21.006;2023-03-01T11:31:52;27.90;;;11.43;;
39540;SDS011;25219;52.244;21.006;2023-03-01T11:34:19;25.00;;;11.98;;
39540;SDS011;25219;52.244;21.006;2023-03-01T11:36:53;20.95;;;11.05;;
39540;SDS011;25219;52.244;21.006;2023-03-01T11:42:17;21.42;;;10.55;;
39540;SDS011;25219;52.244;21.006;2023-03-01T11:44:44;23.33;;;11.63;;
39540;SDS011;25219;52.244;21.006;2023-03-01T11:58:04;20.38;;;11.10;;
39540;SDS011;25219;52.244;21.006;2023-03-01T12:10:41;16.65;;;9.07;;
39540;SDS011;25219;52.244;21.006;2023-03-01T12:16:18;23.90;;;10.15;;
39540;SDS011;25219;52.244;21.006;2023-03-01T12:24:05;19.88;;;10.25;;
39540;SDS011;25219;52.244;21.006;2023-03-01T12:26:42;21.30;;;10.48;;
39540;SDS011;25219;52.244;21.006;2023-03-01T12:29:17;23.02;;;10.05;;
39540;SDS011;25219;52.244;21.006;2023-03-01T12:39:52;17.10;;;8.48;;
39540;SDS011;25219;52.244;21.006;2023-03-01T12:42:30;20.77;;;9.23;;
39540;SDS011;25219;52.244;21.006;2023-03-01T12:50:20;15.80;;;8.63;;
39540;SDS011;25219;52.244;21.006;2023-03-01T12:52:56;11.98;;;7.43;;
39540;SDS011;25219;52.244;21.006;2023-03-01T12:55:24;14.50;;;8.73;;
39540;SDS011;25219;52.244;21.006;2023-03-01T12:57:54;15.55;;;7.55;;
39540;SDS011;25219;52.244;21.006;2023-03-01T13:00:30;13.15;;;6.40;;
39540;SDS011;25219;52.244;21.006;2023-03-01T13:08:20;16.50;;;8.43;;
39540;SDS011;25219;52.244;21.006;2023-03-01T13:10:52;18.48;;;8.45;;
39540;SDS011;25219;52.244;21.006;2023-03-01T13:13:20;17.10;;;8.68;;
39540;SDS011;25219;52.244;21.006;2023-03-01T13:15:46;21.23;;;9.45;;
39540;SDS011;25219;52.244;21.006;2023-03-01T13:23:08;20.48;;;10.18;;
39540;SDS011;25219;52.244;21.006;2023-03-01T13:25:59;23.20;;;10.63;;
39540;SDS011;25219;52.244;21.006;2023-03-01T13:31:05;23.98;;;9.25;;
39540;SDS011;25219;52.244;21.006;2023-03-01T13:35:56;14.65;;;8.10;;
39540;SDS011;25219;52.244;21.006;2023-03-01T13:41:06;19.05;;;7.68;;
39540;SDS011;25219;52.244;21.006;2023-03-01T13:43:32;17.30;;;8.10;;
39540;SDS011;25219;52.244;21.006;2023-03-01T13:45:59;19.27;;;7.90;;
39540;SDS011;25219;52.244;21.006;2023-03-01T13:48:26;17.42;;;7.97;;
39540;SDS011;25219;52.244;21.006;2023-03-01T13:51:01;15.95;;;8.93;;
39540;SDS011;25219;52.244;21.006;2023-03-01T13:53:29;16.70;;;8.85;;
39540;SDS011;25219;52.244;21.006;2023-03-01T13:55:55;16.88;;;8.75;;
39540;SDS011;25219;52.244;21.006;2023-03-01T13:58:25;18.35;;;9.32;;
39540;SDS011;25219;52.244;21.006;2023-03-01T14:00:57;14.48;;;8.20;;
39540;SDS011;25219;52.244;21.006;2023-03-01T14:03:23;20.42;;;9.50;;
39540;SDS011;25219;52.244;21.006;2023-03-01T14:06:02;15.40;;;8.43;;
39540;SDS011;25219;52.244;21.006;2023-03-01T14:08:28;18.98;;;8.70;;
39540;SDS011;25219;52.244;21.006;2023-03-01T14:13:35;15.85;;;9.50;;
39540;SDS011;25219;52.244;21.006;2023-03-01T14:16:11;20.90;;;10.23;;
39540;SDS011;25219;52.244;21.006;2023-03-01T14:21:07;16.35;;;9.73;;
39540;SDS011;25219;52.244;21.006;2023-03-01T14:23:32;20.05;;;10.15;;
39540;SDS011;25219;52.244;21.006;2023-03-01T14:26:01;19.15;;;10.68;;
39540;SDS011;25219;52.244;21.006;2023-03-01T14:28:30;23.88;;;10.90;;
39540;SDS011;25219;52.244;21.006;2023-03-01T14:30:58;17.70;;;9.68;;
39540;SDS011;25219;52.244;21.006;2023-03-01T14:33:32;18.15;;;9.70;;
39540;SDS011;25219;52.244;21.006;2023-03-01T14:36:02;16.20;;;9.45;;
39540;SDS011;25219;52.244;21.006;2023-03-01T14:38:36;23.50;;;10.60;;
39540;SDS011;25219;52.244;21.006;2023-03-01T14:41:03;17.02;;;9.77;;
39540;SDS011;25219;52.244;21.006;2023-03-01T14:43:30;16.60;;;8.75;;
39540;SDS011;25219;52.244;21.006;2023-03-01T14:45:56;22.25;;;10.23;;
39540;SDS011;25219;52.244;21.006;2023-03-01T14:48:21;17.02;;;9.35;;
39540;SDS011;25219;52.244;21.006;2023-03-01T14:50:46;132.27;;;64.65;;
39540;SDS011;25219;52.244;21.006;2023-03-01T14:53:30;36.65;;;16.33;;
39540;SDS011;25219;52.244;21.006;2023-03-01T14:55:56;21.42;;;10.80;;
39540;SDS011;25219;52.244;21.006;2023-03-01T14:58:25;19.25;;;10.93;;
39540;SDS011;25219;52.244;21.006;2023-03-01T15:00:58;30.70;;;13.27;;
39540;SDS011;25219;52.244;21.006;2023-03-01T15:05:55;19.13;;;10.73;;
39540;SDS011;25219;52.244;21.006;2023-03-01T15:08:23;19.50;;;10.15;;
39540;SDS011;25219;52.244;21.006;2023-03-01T15:10:57;25.15;;;10.95;;
39540;SDS011;25219;52.244;21.006;2023-03-01T15:13:24;23.75;;;11.80;;
39540;SDS011;25219;52.244;21.006;2023-03-01T15:15:50;18.52;;;10.23;;
39540;SDS011;25219;52.244;21.006;2023-03-01T15:18:17;23.58;;;11.68;;
39540;SDS011;25219;52.244;21.006;2023-03-01T15:20:43;19.55;;;11.10;;
39540;SDS011;25219;52.244;21.006;2023-03-01T15:23:22;20.73;;;11.50;;
39540;SDS011;25219;52.244;21.006;2023-03-01T15:25:48;20.58;;;11.68;;
39540;SDS011;25219;52.244;21.006;2023-03-01T15:28:21;26.92;;;11.90;;
39540;SDS011;25219;52.244;21.006;2023-03-01T15:30:51;20.50;;;12.05;;
39540;SDS011;25219;52.244;21.006;2023-03-01T15:35:47;22.10;;;12.00;;
39540;SDS011;25219;52.244;21.006;2023-03-01T15:38:32;21.58;;;11.88;;
39540;SDS011;25219;52.244;21.006;2023-03-01T15:40:59;23.15;;;11.77;;
39540;SDS011;25219;52.244;21.006;2023-03-01T15:43:44;21.20;;;12.88;;
39540;SDS011;25219;52.244;21.006;2023-03-01T15:46:23;21.90;;;11.77;;
39540;SDS011;25219;52.244;21.006;2023-03-01T15:48:55;26.95;;;12.23;;
39540;SDS011;25219;52.244;21.006;2023-03-01T15:51:29;22.85;;;12.52;;
39540;SDS011;25219;52.244;21.006;2023-03-01T15:53:55;25.27;;;12.02;;
39540;SDS011;25219;52.244;21.006;2023-03-01T15:56:21;23.20;;;12.48;;
39540;SDS011;25219;52.244;21.006;2023-03-01T15:58:46;25.25;;;12.10;;
39540;SDS011;25219;52.244;21.006;2023-03-01T16:01:15;19.70;;;10.60;;
39540;SDS011;25219;52.244;21.006;2023-03-01T16:03:44;21.80;;;11.07;;
39540;SDS011;25219;52.244;21.006;2023-03-01T16:06:10;131.73;;;57.15;;
39540;SDS011;25219;52.244;21.006;2023-03-01T16:08:36;35.17;;;16.65;;